Time;durP1;ratioP1;P1;durP2;ratioP2;P2;SDS_P1;SDS_P2;PMS_P1;PMS_P2;Temp;Humidity;BMP_temperature;BMP_pressure;BME280_temperature;BME280_humidity;BME280_pressure;Samples;Min_cycle;Max_cycle;Signal;HPM_P1;HPM_P2
2021/05/18 00:00:10;;;;;;;5.22;2.03;;;;;;;;;;5052136;28;20051;-53
2021/05/18 00:02:36;;;;;;;7.18;1.98;;;;;;;;;;5064971;28;20051;-53
2021/05/18 00:05:04;;;;;;;4.32;1.60;;;;;;;;;;5058720;28;20041;-54
2021/05/18 00:07:32;;;;;;;2.17;1.98;;;;;;;;;;5051047;28;20617;-54
2021/05/18 00:12:44;;;;;;;4.75;2.10;;;;;;;;;;5055414;28;20051;-53
2021/05/18 00:15:15;;;;;;;3.75;2.65;;;;;;;;;;5056433;28;20116;-52
2021/05/18 00:17:42;;;;;;;1.65;1.55;;;;;;;;;;5065360;28;20032;-51
2021/05/18 00:20:11;;;;;;;3.88;2.15;;;;;;;;;;5061481;28;20080;-53
2021/05/18 00:22:39;;;;;;;7.82;1.88;;;;;;;;;;5069020;28;20043;-54
2021/05/18 00:25:06;;;;;;;5.22;1.77;;;;;;;;;;5063127;28;20061;-52
2021/05/18 00:27:33;;;;;;;3.03;2.80;;;;;;;;;;5053552;28;20136;-55
2021/05/18 00:30:00;;;;;;;3.90;2.30;;;;;;;;;;5064258;28;20029;-55
2021/05/18 00:32:27;;;;;;;4.13;1.80;;;;;;;;;;5060930;28;20044;-50
2021/05/18 00:34:55;;;;;;;3.22;2.00;;;;;;;;;;5062798;28;20044;-54
2021/05/18 00:37:23;;;;;;;7.95;2.58;;;;;;;;;;5059734;28;20036;-54
2021/05/18 00:39:50;;;;;;;8.82;2.65;;;;;;;;;;5054542;28;20064;-54
2021/05/18 00:42:17;;;;;;;7.13;1.95;;;;;;;;;;5065440;28;20040;-54
2021/05/18 00:44:44;;;;;;;5.80;2.38;;;;;;;;;;5063928;28;20049;-53
2021/05/18 00:47:11;;;;;;;3.92;2.00;;;;;;;;;;5057308;28;20114;-54
2021/05/18 00:49:38;;;;;;;6.85;3.25;;;;;;;;;;5059243;28;20060;-53
2021/05/18 00:52:06;;;;;;;4.70;2.63;;;;;;;;;;5054090;28;20056;-55
2021/05/18 00:55:17;;;;;;;8.52;2.42;;;;;;;;;;5060767;28;20103;-55
2021/05/18 01:00:12;;;;;;;2.20;2.10;;;;;;;;;;5066179;28;20033;-55
2021/05/18 01:02:39;;;;;;;4.00;2.67;;;;;;;;;;5066969;28;20032;-55
2021/05/18 01:05:15;;;;;;;4.60;2.47;;;;;;;;;;5056562;28;20090;-54
2021/05/18 01:07:45;;;;;;;7.72;2.60;;;;;;;;;;5055321;28;20141;-55
2021/05/18 01:10:12;;;;;;;2.35;1.98;;;;;;;;;;5063718;28;20473;-54
2021/05/18 01:12:39;;;;;;;5.20;2.72;;;;;;;;;;5060420;28;20037;-53
2021/05/18 01:15:07;;;;;;;2.78;1.83;;;;;;;;;;5063668;28;20060;-53
2021/05/18 01:17:34;;;;;;;6.57;3.53;;;;;;;;;;5061264;28;20454;-54
2021/05/18 01:20:11;;;;;;;3.75;2.45;;;;;;;;;;5060778;28;20108;-54
2021/05/18 01:22:43;;;;;;;7.10;2.75;;;;;;;;;;5064439;28;20033;-54
2021/05/18 01:25:10;;;;;;;6.03;2.15;;;;;;;;;;5057047;28;20029;-54
2021/05/18 01:27:37;;;;;;;5.72;1.80;;;;;;;;;;5071074;28;20044;-54
2021/05/18 01:30:05;;;;;;;2.20;1.95;;;;;;;;;;5068085;28;20032;-54
2021/05/18 01:32:31;;;;;;;2.65;1.67;;;;;;;;;;5067342;28;20044;-54
2021/05/18 01:34:58;;;;;;;2.58;1.77;;;;;;;;;;5070969;28;20041;-54
2021/05/18 01:37:25;;;;;;;4.60;1.70;;;;;;;;;;5067426;28;20036;-53
2021/05/18 01:45:11;;;;;;;4.13;1.90;;;;;;;;;;5056001;28;20044;-54
2021/05/18 01:47:39;;;;;;;5.18;2.85;;;;;;;;;;5059103;28;20032;-55
2021/05/18 01:50:06;;;;;;;2.20;1.60;;;;;;;;;;5062659;28;20037;-55
2021/05/18 01:52:33;;;;;;;3.17;2.63;;;;;;;;;;5071710;28;20048;-55
2021/05/18 01:55:00;;;;;;;3.63;3.28;;;;;;;;;;5063646;28;20400;-54
2021/05/18 01:57:27;;;;;;;3.10;2.38;;;;;;;;;;5056362;28;20036;-54
2021/05/18 01:59:54;;;;;;;5.85;2.50;;;;;;;;;;5058948;28;20056;-55
2021/05/18 02:02:22;;;;;;;4.03;2.70;;;;;;;;;;5064390;28;20039;-55
2021/05/18 02:04:51;;;;;;;3.50;2.95;;;;;;;;;;5061840;28;20080;-54
2021/05/18 02:07:19;;;;;;;6.78;3.33;;;;;;;;;;5065342;28;20068;-54
2021/05/18 02:09:47;;;;;;;4.18;2.53;;;;;;;;;;5060324;28;20040;-50
2021/05/18 02:12:14;;;;;;;3.28;2.80;;;;;;;;;;5062674;28;20075;-55
2021/05/18 02:14:43;;;;;;;4.38;2.70;;;;;;;;;;5063546;28;20035;-55
2021/05/18 02:25:03;;;;;;;5.57;2.22;;;;;;;;;;5055528;28;20033;-54
2021/05/18 02:27:31;;;;;;;5.28;2.35;;;;;;;;;;5061989;28;20045;-52
2021/05/18 02:29:58;;;;;;;3.95;2.45;;;;;;;;;;5058006;28;20040;-53
2021/05/18 02:32:26;;;;;;;2.25;2.15;;;;;;;;;;5069888;28;20461;-55
2021/05/18 02:34:53;;;;;;;3.05;2.63;;;;;;;;;;5062916;28;20086;-54
2021/05/18 02:37:20;;;;;;;2.53;2.22;;;;;;;;;;5064622;28;20037;-55
2021/05/18 02:39:48;;;;;;;4.13;1.70;;;;;;;;;;5062571;28;20037;-55
2021/05/18 02:42:15;;;;;;;4.25;2.83;;;;;;;;;;5067612;28;20049;-55
2021/05/18 02:44:49;;;;;;;3.17;2.90;;;;;;;;;;5071100;28;20484;-55
2021/05/18 02:50:02;;;;;;;5.70;3.50;;;;;;;;;;5057848;28;20083;-55
2021/05/18 02:52:31;;;;;;;2.10;1.90;;;;;;;;;;5061249;28;20557;-55
2021/05/18 02:54:58;;;;;;;3.90;2.47;;;;;;;;;;5062450;28;20047;-54
2021/05/18 02:57:36;;;;;;;2.22;2.10;;;;;;;;;;5068611;28;20024;-55
2021/05/18 03:00:08;;;;;;;5.88;3.30;;;;;;;;;;5061695;28;20433;-54
2021/05/18 03:02:35;;;;;;;5.60;5.28;;;;;;;;;;5065981;28;20060;-54
2021/05/18 03:05:03;;;;;;;4.40;4.10;;;;;;;;;;5053289;28;20037;-54
2021/05/18 03:07:29;;;;;;;14.70;6.03;;;;;;;;;;5066180;28;20037;-55
2021/05/18 03:09:59;;;;;;;6.18;5.63;;;;;;;;;;5054005;28;20049;-54
2021/05/18 03:12:27;;;;;;;7.97;7.60;;;;;;;;;;5060801;28;20505;-54
2021/05/18 03:14:54;;;;;;;10.38;9.38;;;;;;;;;;5062201;28;20094;-54
2021/05/18 03:17:21;;;;;;;9.40;8.63;;;;;;;;;;5050901;28;20041;-55
2021/05/18 03:19:49;;;;;;;14.05;13.18;;;;;;;;;;5061409;28;20029;-54
2021/05/18 03:22:16;;;;;;;7.80;7.20;;;;;;;;;;5061996;28;20028;-54
2021/05/18 03:24:43;;;;;;;10.85;10.27;;;;;;;;;;5059650;28;20045;-55
2021/05/18 03:27:10;;;;;;;12.45;11.60;;;;;;;;;;5062626;28;20075;-55
2021/05/18 03:29:37;;;;;;;15.18;14.35;;;;;;;;;;5051595;28;20130;-55
2021/05/18 03:34:50;;;;;;;13.90;12.63;;;;;;;;;;5058931;28;20037;-55
2021/05/18 03:40:13;;;;;;;16.85;15.93;;;;;;;;;;5050542;28;20048;-55
2021/05/18 03:42:48;;;;;;;12.63;11.57;;;;;;;;;;5066858;28;20021;-55
2021/05/18 03:45:24;;;;;;;14.48;13.70;;;;;;;;;;5052633;28;20045;-52
2021/05/18 04:12:03;;;;;;;13.30;12.27;;;;;;;;;;5060905;28;20045;-55
2021/05/18 04:17:15;;;;;;;11.20;10.73;;;;;;;;;;5052972;28;20099;-55
2021/05/18 04:19:49;;;;;;;15.93;15.20;;;;;;;;;;5060083;28;20041;-55
2021/05/18 04:41:14;;;;;;;15.05;14.23;;;;;;;;;;5057845;28;20056;-52
2021/05/18 04:49:46;;;;;;;12.57;12.07;;;;;;;;;;5073332;28;20059;-55
2021/05/18 04:52:16;;;;;;;9.68;9.35;;;;;;;;;;5062543;28;20524;-54
2021/05/18 05:00:08;;;;;;;6.70;6.50;;;;;;;;;;5064659;28;20032;-52
2021/05/18 05:02:54;;;;;;;12.98;12.63;;;;;;;;;;5053824;28;20041;-54
2021/05/18 05:08:23;;;;;;;8.02;7.55;;;;;;;;;;5067221;28;20056;-51
2021/05/18 05:16:05;;;;;;;6.35;4.35;;;;;;;;;;5067384;28;20037;-55
2021/05/18 05:18:32;;;;;;;3.85;3.65;;;;;;;;;;5052061;28;20070;-53
2021/05/18 05:20:59;;;;;;;2.75;2.65;;;;;;;;;;5066106;28;20067;-55
2021/05/18 05:23:26;;;;;;;3.65;3.13;;;;;;;;;;5060796;28;20036;-55
2021/05/18 05:25:52;;;;;;;3.92;3.22;;;;;;;;;;5062367;28;20045;-54
2021/05/18 05:28:19;;;;;;;5.05;3.13;;;;;;;;;;5061791;28;20052;-55
2021/05/18 05:30:46;;;;;;;5.28;3.35;;;;;;;;;;5068503;28;20072;-51
2021/05/18 05:33:13;;;;;;;13.27;3.35;;;;;;;;;;5064968;28;20037;-51
2021/05/18 05:35:39;;;;;;;3.53;3.17;;;;;;;;;;5054300;28;20469;-52
2021/05/18 05:38:07;;;;;;;3.72;3.38;;;;;;;;;;5071729;28;20080;-53
2021/05/18 05:40:49;;;;;;;6.07;3.63;;;;;;;;;;5067928;28;20033;-52
2021/05/18 05:43:15;;;;;;;4.05;3.83;;;;;;;;;;5071416;28;20610;-53
2021/05/18 05:45:42;;;;;;;4.75;4.35;;;;;;;;;;5067608;28;20094;-53
2021/05/18 05:48:09;;;;;;;7.88;3.22;;;;;;;;;;5062906;28;20047;-52
2021/05/18 05:50:35;;;;;;;4.75;3.03;;;;;;;;;;5067987;28;20052;-53
2021/05/18 05:53:05;;;;;;;3.58;3.25;;;;;;;;;;5060552;28;20040;-50
2021/05/18 05:55:32;;;;;;;3.33;2.85;;;;;;;;;;5052609;28;20033;-51
2021/05/18 05:57:59;;;;;;;5.00;2.47;;;;;;;;;;5065578;28;20041;-51
2021/05/18 06:00:26;;;;;;;4.50;2.92;;;;;;;;;;5062659;28;20053;-52
2021/05/18 06:02:52;;;;;;;3.58;3.20;;;;;;;;;;5070476;28;20028;-52
2021/05/18 06:05:19;;;;;;;6.13;3.90;;;;;;;;;;5067307;28;20405;-51
2021/05/18 06:07:46;;;;;;;7.93;2.80;;;;;;;;;;5055940;28;20068;-51
2021/05/18 06:10:20;;;;;;;2.97;2.30;;;;;;;;;;5064487;28;20037;-48
2021/05/18 06:34:41;;;;;;;7.80;1.30;;;;;;;;;;5061391;28;20387;-51
2021/05/18 06:41:09;;;;;;;10.48;2.75;;;;;;;;;;5071273;28;20048;-52
2021/05/18 06:43:02;;;;;;;2.08;1.30;;;;;;;;;;5061283;28;20035;-48
2021/05/18 06:48:27;;;;;;;3.30;1.77;;;;;;;;;;5023251;28;20641;-51
2021/05/18 06:50:55;;;;;;;5.47;1.30;;;;;;;;;;5060621;28;20101;-49
2021/05/18 06:53:22;;;;;;;6.60;1.55;;;;;;;;;;5061305;28;20095;-51
2021/05/18 06:55:51;;;;;;;2.60;1.40;;;;;;;;;;5063918;28;20149;-52
2021/05/18 07:00:06;;;;;;;5.38;1.30;;;;;;;;;;5063189;28;20044;-52
2021/05/18 07:01:17;;;;;;;5.43;2.15;;;;;;;;;;5069610;28;20079;-53
2021/05/18 07:03:50;;;;;;;5.85;1.20;;;;;;;;;;5065638;28;20043;-52
2021/05/18 07:08:57;;;;;;;6.07;1.35;;;;;;;;;;5063087;28;19921;-52
2021/05/18 07:11:24;;;;;;;11.23;1.88;;;;;;;;;;5055855;28;20737;-52
2021/05/18 07:13:51;;;;;;;5.43;1.38;;;;;;;;;;5064605;28;20043;-51
2021/05/18 07:16:18;;;;;;;4.75;1.42;;;;;;;;;;5064486;28;20043;-51
2021/05/18 07:18:44;;;;;;;4.70;1.25;;;;;;;;;;5057190;28;20503;-52
2021/05/18 07:21:12;;;;;;;7.85;1.65;;;;;;;;;;5063856;28;20090;-53
2021/05/18 07:23:39;;;;;;;3.13;1.10;;;;;;;;;;5064582;28;20040;-51
2021/05/18 07:26:06;;;;;;;7.85;1.40;;;;;;;;;;5066853;28;20098;-53
2021/05/18 07:28:35;;;;;;;3.60;1.15;;;;;;;;;;5058569;28;20135;-51
2021/05/18 07:31:04;;;;;;;3.83;1.20;;;;;;;;;;5063909;28;20047;-52
2021/05/18 07:33:31;;;;;;;11.98;1.77;;;;;;;;;;5061705;28;20522;-52
2021/05/18 07:36:02;;;;;;;6.13;1.33;;;;;;;;;;5068846;28;20060;-53
2021/05/18 07:38:30;;;;;;;6.30;1.20;;;;;;;;;;5061998;28;20041;-53
2021/05/18 07:40:57;;;;;;;4.88;1.38;;;;;;;;;;5064526;28;20037;-52
2021/05/18 07:43:24;;;;;;;3.80;1.00;;;;;;;;;;5057596;28;20069;-53
2021/05/18 07:45:59;;;;;;;7.40;1.10;;;;;;;;;;5060393;28;20036;-53
2021/05/18 07:51:16;;;;;;;5.78;1.00;;;;;;;;;;5069771;28;20044;-51
2021/05/18 08:07:22;;;;;;;5.03;1.13;;;;;;;;;;5066693;28;20044;-54
2021/05/18 08:09:55;;;;;;;8.43;0.98;;;;;;;;;;5055512;28;20053;-53
2021/05/18 08:12:22;;;;;;;4.63;1.95;;;;;;;;;;5055268;28;20049;-52
2021/05/18 08:15:04;;;;;;;5.93;1.63;;;;;;;;;;5060488;28;20093;-54
2021/05/18 08:17:41;;;;;;;2.47;0.82;;;;;;;;;;5054583;28;20128;-53
2021/05/18 10:38:38;;;;;;;1.85;0.80;;;;;;;;;;5067633;28;20028;-50
2021/05/18 10:41:05;;;;;;;0.70;0.70;;;;;;;;;;5064796;28;20570;-54
2021/05/18 10:43:36;;;;;;;0.82;0.70;;;;;;;;;;5063971;28;20040;-53
2021/05/18 10:46:06;;;;;;;5.60;0.70;;;;;;;;;;5062953;28;20052;-53
2021/05/18 10:48:34;;;;;;;0.70;0.70;;;;;;;;;;5056057;28;20119;-53
2021/05/18 10:51:21;;;;;;;2.35;0.82;;;;;;;;;;5060446;28;20504;-52
2021/05/18 10:54:07;;;;;;;5.47;0.82;;;;;;;;;;5061729;28;20032;-54
2021/05/18 10:56:53;;;;;;;4.28;0.70;;;;;;;;;;5065443;28;20044;-55
2021/05/18 10:59:32;;;;;;;2.38;0.65;;;;;;;;;;5080653;28;20041;-54
2021/05/18 11:02:00;;;;;;;1.80;0.68;;;;;;;;;;5061476;28;20485;-54
2021/05/18 11:04:28;;;;;;;0.73;0.70;;;;;;;;;;5068857;28;20508;-51
2021/05/18 11:06:59;;;;;;;2.25;0.63;;;;;;;;;;5061700;28;20087;-54
2021/05/18 11:09:25;;;;;;;0.82;0.70;;;;;;;;;;5056671;28;20447;-54
2021/05/18 11:12:03;;;;;;;0.60;0.60;;;;;;;;;;5063265;28;20036;-53
2021/05/18 11:14:34;;;;;;;2.75;0.60;;;;;;;;;;5064097;28;20037;-54
2021/05/18 11:17:08;;;;;;;1.98;0.85;;;;;;;;;;5054737;28;20033;-54
2021/05/18 11:19:53;;;;;;;2.42;0.70;;;;;;;;;;5059697;28;20061;-50
2021/05/18 11:23:19;;;;;;;1.38;0.60;;;;;;;;;;5061618;28;20373;-54
2021/05/18 11:25:07;;;;;;;1.70;0.60;;;;;;;;;;5053154;28;20044;-53
2021/05/18 11:27:35;;;;;;;1.75;0.70;;;;;;;;;;5063071;28;20041;-54
2021/05/18 11:30:02;;;;;;;4.50;0.95;;;;;;;;;;5059190;28;20029;-54
2021/05/18 11:32:29;;;;;;;3.13;0.70;;;;;;;;;;5054636;28;20041;-53
2021/05/18 11:34:58;;;;;;;2.63;0.60;;;;;;;;;;5061696;28;20036;-54
2021/05/18 11:37:26;;;;;;;1.75;0.60;;;;;;;;;;5053128;28;20052;-54
2021/05/18 11:40:12;;;;;;;3.42;0.70;;;;;;;;;;5063939;28;20043;-53
2021/05/18 11:42:39;;;;;;;1.95;0.60;;;;;;;;;;5065735;28;20461;-51
2021/05/18 11:45:17;;;;;;;2.30;0.60;;;;;;;;;;5059893;28;20052;-52
2021/05/18 11:47:45;;;;;;;1.48;0.60;;;;;;;;;;5059816;28;20029;-50
2021/05/18 11:50:17;;;;;;;2.33;0.70;;;;;;;;;;5058325;28;20063;-50
2021/05/18 11:52:44;;;;;;;1.85;0.60;;;;;;;;;;5064324;28;20040;-51
2021/05/18 11:55:18;;;;;;;0.75;0.60;;;;;;;;;;5064856;28;20037;-52
2021/05/18 11:57:45;;;;;;;4.63;0.70;;;;;;;;;;5067365;28;20116;-50
2021/05/18 12:00:25;;;;;;;1.27;0.60;;;;;;;;;;5060678;28;20511;-52
2021/05/18 12:03:12;;;;;;;1.42;0.60;;;;;;;;;;5063480;28;20590;-49
2021/05/18 12:06:08;;;;;;;2.40;0.82;;;;;;;;;;5056104;28;20477;-51
2021/05/18 12:08:36;;;;;;;1.25;0.60;;;;;;;;;;5024320;28;20152;-51
2021/05/18 12:11:22;;;;;;;1.95;0.60;;;;;;;;;;5023431;28;20163;-51
2021/05/18 12:13:51;;;;;;;2.10;0.60;;;;;;;;;;5019168;28;20045;-51
2021/05/18 12:16:19;;;;;;;2.70;0.88;;;;;;;;;;5013176;28;20391;-52
2021/05/18 12:19:00;;;;;;;0.93;0.55;;;;;;;;;;5019180;28;20741;-51
2021/05/18 12:21:28;;;;;;;0.73;0.60;;;;;;;;;;5009787;28;20038;-51
2021/05/18 12:24:21;;;;;;;2.50;0.60;;;;;;;;;;5025053;28;20140;-51
2021/05/18 12:26:54;;;;;;;1.27;0.63;;;;;;;;;;5014778;28;20166;-51
2021/05/18 12:29:28;;;;;;;1.70;0.63;;;;;;;;;;5009277;28;20079;-51
2021/05/18 12:32:13;;;;;;;1.40;0.60;;;;;;;;;;5025117;28;20069;-52
2021/05/18 12:34:40;;;;;;;1.67;0.60;;;;;;;;;;5022067;28;20041;-52
2021/05/18 12:37:07;;;;;;;1.00;0.60;;;;;;;;;;5019005;28;20100;-51
2021/05/18 12:39:37;;;;;;;1.50;0.70;;;;;;;;;;5020597;28;20104;-48
2021/05/18 12:42:05;;;;;;;4.35;0.60;;;;;;;;;;5023463;28;20041;-50
2021/05/18 12:44:33;;;;;;;1.38;0.85;;;;;;;;;;5031497;28;20127;-46
2021/05/18 12:47:04;;;;;;;0.98;0.60;;;;;;;;;;5042215;28;20099;-47
2021/05/18 12:49:35;;;;;;;1.67;0.60;;;;;;;;;;5039257;28;20133;-46
2021/05/18 12:52:12;;;;;;;6.10;0.80;;;;;;;;;;5041112;28;20128;-49
2021/05/18 12:55:07;;;;;;;1.23;0.65;;;;;;;;;;5036825;28;20124;-46
2021/05/18 12:57:47;;;;;;;0.90;0.60;;;;;;;;;;5028273;28;20061;-45
2021/05/18 13:00:14;;;;;;;2.60;0.60;;;;;;;;;;5041331;28;20077;-46
2021/05/18 13:02:42;;;;;;;1.77;0.60;;;;;;;;;;5036402;28;20095;-47
2021/05/18 13:05:15;;;;;;;2.47;0.60;;;;;;;;;;5049513;28;20048;-46
2021/05/18 13:07:42;;;;;;;;;;;;;;;;;;5046698;28;20053;-48
2021/05/18 13:10:12;;;;;;;2.65;0.70;;;;;;;;;;5050657;28;19953;-46
2021/05/18 13:12:39;;;;;;;1.10;0.60;;;;;;;;;;5051886;28;20128;-46
2021/05/18 13:15:09;;;;;;;3.70;0.80;;;;;;;;;;5047892;28;20037;-47
2021/05/18 13:17:36;;;;;;;3.40;0.60;;;;;;;;;;5039756;28;20042;-46
2021/05/18 13:20:10;;;;;;;3.22;0.70;;;;;;;;;;5047699;28;20576;-44
2021/05/18 13:22:40;;;;;;;1.60;0.60;;;;;;;;;;5040280;28;20033;-45
2021/05/18 13:27:57;;;;;;;1.35;0.60;;;;;;;;;;5042003;28;20045;-46
2021/05/18 13:30:25;;;;;;;1.90;0.63;;;;;;;;;;5039529;28;20044;-46
2021/05/18 13:32:52;;;;;;;2.17;0.70;;;;;;;;;;5051120;28;20040;-46
2021/05/18 13:35:20;;;;;;;1.23;0.60;;;;;;;;;;5045337;28;20056;-46
2021/05/18 13:37:47;;;;;;;2.13;0.60;;;;;;;;;;5038946;28;20045;-44
2021/05/18 13:40:16;;;;;;;2.22;0.60;;;;;;;;;;5046437;28;20033;-47
2021/05/18 13:42:43;;;;;;;1.73;0.65;;;;;;;;;;5042756;28;20587;-45
2021/05/18 13:45:10;;;;;;;0.95;0.70;;;;;;;;;;5054611;28;20110;-47
2021/05/18 13:47:37;;;;;;;2.45;0.65;;;;;;;;;;5062874;28;20036;-45
2021/05/18 13:50:04;;;;;;;2.25;0.60;;;;;;;;;;5065154;28;20055;-46
2021/05/18 13:52:31;;;;;;;1.17;0.60;;;;;;;;;;5064890;28;20041;-47
2021/05/18 13:54:58;;;;;;;1.10;0.60;;;;;;;;;;5037826;28;20036;-46
2021/05/18 13:57:25;;;;;;;1.20;0.70;;;;;;;;;;5061023;28;20056;-46
2021/05/18 13:59:52;;;;;;;4.72;0.60;;;;;;;;;;5063598;28;20099;-46
2021/05/18 14:02:19;;;;;;;1.05;0.60;;;;;;;;;;5056515;28;20132;-48
2021/05/18 14:04:46;;;;;;;1.23;0.60;;;;;;;;;;5064278;28;20082;-47
2021/05/18 14:10:04;;;;;;;3.63;0.75;;;;;;;;;;5057917;28;20044;-49
2021/05/18 14:12:30;;;;;;;3.70;0.60;;;;;;;;;;5062862;28;20063;-48
2021/05/18 14:14:57;;;;;;;1.52;0.60;;;;;;;;;;5060818;28;20047;-47
2021/05/18 14:17:24;;;;;;;1.52;0.70;;;;;;;;;;5061701;28;20037;-48
2021/05/18 14:19:51;;;;;;;0.70;0.60;;;;;;;;;;5063809;28;20028;-48
2021/05/18 14:22:18;;;;;;;1.73;0.60;;;;;;;;;;5060610;28;20037;-47
2021/05/18 14:25:27;;;;;;;2.28;0.60;;;;;;;;;;5067502;28;20043;-46
2021/05/18 14:27:38;;;;;;;2.38;0.70;;;;;;;;;;5064035;28;20544;-46
2021/05/18 14:30:07;;;;;;;2.58;0.70;;;;;;;;;;5071518;28;20040;-48
2021/05/18 14:32:36;;;;;;;5.35;0.70;;;;;;;;;;5063581;28;20047;-47
2021/05/18 14:35:06;;;;;;;1.33;0.68;;;;;;;;;;5059132;28;20377;-46
2021/05/18 14:37:33;;;;;;;1.60;0.55;;;;;;;;;;5064571;28;20410;-46
2021/05/18 14:45:18;;;;;;;1.80;0.60;;;;;;;;;;5060010;28;20589;-46
2021/05/18 14:48:20;;;;;;;1.20;0.60;;;;;;;;;;5059822;28;20094;-45
2021/05/18 14:56:05;;;;;;;0.55;0.55;;;;;;;;;;5060791;28;20128;-46
2021/05/18 14:58:32;;;;;;;1.92;0.70;;;;;;;;;;5052900;28;20119;-48
2021/05/18 15:00:59;;;;;;;2.30;0.70;;;;;;;;;;5066229;28;20523;-46
2021/05/18 15:03:31;;;;;;;2.35;0.60;;;;;;;;;;5067837;28;20028;-46
2021/05/18 15:05:58;;;;;;;1.65;0.60;;;;;;;;;;5057037;28;20033;-46
2021/05/18 15:08:25;;;;;;;3.85;0.60;;;;;;;;;;5061849;28;20049;-45
2021/05/18 15:11:04;;;;;;;5.05;0.60;;;;;;;;;;5053029;28;20489;-48
2021/05/18 15:13:33;;;;;;;0.60;0.60;;;;;;;;;;5060061;28;20041;-46
2021/05/18 15:16:00;;;;;;;0.65;0.60;;;;;;;;;;5060144;28;20079;-47
2021/05/18 15:18:29;;;;;;;1.17;0.60;;;;;;;;;;5055359;28;20044;-45
2021/05/18 15:20:57;;;;;;;1.13;0.50;;;;;;;;;;5066420;28;20044;-48
2021/05/18 15:23:25;;;;;;;1.40;0.60;;;;;;;;;;5059409;28;20060;-48
2021/05/18 15:25:52;;;;;;;0.88;0.60;;;;;;;;;;5060199;28;20106;-48
2021/05/18 15:28:19;;;;;;;0.77;0.60;;;;;;;;;;5060169;28;20028;-44
2021/05/18 15:30:46;;;;;;;0.50;0.50;;;;;;;;;;5052380;28;20148;-47
2021/05/18 15:33:12;;;;;;;0.77;0.50;;;;;;;;;;5062605;28;20144;-44
2021/05/18 15:35:39;;;;;;;0.50;0.50;;;;;;;;;;5062829;28;20512;-48
2021/05/18 15:38:06;;;;;;;1.27;0.50;;;;;;;;;;5056240;28;20052;-46
2021/05/18 15:40:33;;;;;;;0.60;0.60;;;;;;;;;;5058928;28;20069;-45
2021/05/18 15:43:00;;;;;;;1.20;0.50;;;;;;;;;;5050751;28;20037;-45
2021/05/18 15:45:26;;;;;;;0.50;0.50;;;;;;;;;;5062227;28;20068;-45
2021/05/18 15:47:58;;;;;;;0.50;0.50;;;;;;;;;;5054912;28;20259;-46
2021/05/18 15:50:26;;;;;;;1.60;0.55;;;;;;;;;;5068211;28;20052;-45
2021/05/18 15:52:52;;;;;;;1.45;0.50;;;;;;;;;;5061523;28;20028;-46
2021/05/18 15:55:19;;;;;;;0.80;0.50;;;;;;;;;;5056661;28;20041;-46
2021/05/18 15:57:46;;;;;;;0.50;0.50;;;;;;;;;;5067785;28;20040;-46
2021/05/18 16:00:13;;;;;;;0.50;0.50;;;;;;;;;;5064814;28;20544;-47
2021/05/18 16:02:42;;;;;;;1.08;0.50;;;;;;;;;;5070053;28;20036;-46
2021/05/18 16:05:08;;;;;;;0.50;0.50;;;;;;;;;;5063200;28;20082;-48
2021/05/18 16:07:37;;;;;;;1.92;0.60;;;;;;;;;;5050731;28;20041;-46
2021/05/18 16:10:04;;;;;;;1.95;0.50;;;;;;;;;;5063790;28;20059;-46
2021/05/18 16:12:30;;;;;;;0.60;0.60;;;;;;;;;;5058429;28;20047;-45
2021/05/18 16:14:57;;;;;;;2.33;0.50;;;;;;;;;;5058594;28;20045;-46
2021/05/18 16:17:24;;;;;;;1.85;0.50;;;;;;;;;;5065996;28;20044;-49
2021/05/18 16:19:51;;;;;;;0.57;0.57;;;;;;;;;;5063803;28;20056;-50
2021/05/18 16:22:17;;;;;;;1.17;0.63;;;;;;;;;;5065015;28;20673;-45
2021/05/18 16:24:45;;;;;;;1.83;0.50;;;;;;;;;;5067051;28;20047;-47
2021/05/18 16:27:15;;;;;;;1.75;0.57;;;;;;;;;;5054637;28;20040;-45
2021/05/18 16:29:42;;;;;;;0.50;0.50;;;;;;;;;;5064528;28;20119;-48
2021/05/18 16:32:11;;;;;;;0.95;0.60;;;;;;;;;;5064205;28;20037;-47
2021/05/18 16:34:38;;;;;;;0.93;0.55;;;;;;;;;;5068780;28;20032;-46
2021/05/18 16:37:05;;;;;;;1.40;0.60;;;;;;;;;;5062245;28;20114;-46
2021/05/18 16:39:31;;;;;;;0.50;0.50;;;;;;;;;;5059481;28;20041;-49
2021/05/18 16:41:58;;;;;;;0.50;0.50;;;;;;;;;;5070420;28;20048;-47
2021/05/18 16:44:25;;;;;;;0.60;0.60;;;;;;;;;;5071222;28;20037;-45
2021/05/18 16:46:52;;;;;;;0.90;0.60;;;;;;;;;;5072185;28;20052;-45
2021/05/18 16:49:19;;;;;;;0.65;0.57;;;;;;;;;;5068329;28;20506;-47
2021/05/18 16:51:47;;;;;;;2.78;0.60;;;;;;;;;;5058538;28;20082;-45
2021/05/18 16:54:16;;;;;;;0.60;0.60;;;;;;;;;;5065592;28;20385;-46
2021/05/18 16:56:42;;;;;;;5.55;0.80;;;;;;;;;;5067672;28;20090;-45
2021/05/18 16:59:09;;;;;;;0.60;0.60;;;;;;;;;;5071479;28;20488;-44
2021/05/18 17:01:36;;;;;;;0.93;0.60;;;;;;;;;;5068828;28;20061;-44
2021/05/18 17:04:16;;;;;;;1.15;0.80;;;;;;;;;;5067827;28;20063;-51
2021/05/18 17:06:43;;;;;;;0.75;0.65;;;;;;;;;;5071980;28;20120;-55
2021/05/18 17:09:10;;;;;;;0.70;0.70;;;;;;;;;;5061647;28;20044;-55
2021/05/18 17:11:39;;;;;;;0.60;0.60;;;;;;;;;;5059199;28;20172;-55
2021/05/18 17:14:06;;;;;;;0.70;0.70;;;;;;;;;;5063981;28;20043;-56
2021/05/18 17:16:33;;;;;;;0.60;0.60;;;;;;;;;;5057484;28;20384;-54
2021/05/18 17:19:00;;;;;;;2.45;0.70;;;;;;;;;;5060951;28;20037;-56
2021/05/18 17:21:27;;;;;;;2.60;1.10;;;;;;;;;;5067988;28;20052;-55
2021/05/18 17:23:54;;;;;;;2.05;0.60;;;;;;;;;;5063390;28;20033;-55
2021/05/18 17:26:21;;;;;;;1.55;0.70;;;;;;;;;;5065130;28;20037;-52
2021/05/18 17:28:47;;;;;;;0.60;0.60;;;;;;;;;;5059452;28;20516;-56
2021/05/18 17:31:15;;;;;;;1.30;0.65;;;;;;;;;;5062465;28;20040;-53
2021/05/18 17:33:43;;;;;;;3.22;0.70;;;;;;;;;;5063265;28;20036;-55
2021/05/18 17:36:10;;;;;;;0.70;0.70;;;;;;;;;;5055615;28;20652;-55
2021/05/18 17:38:37;;;;;;;2.03;0.80;;;;;;;;;;5069781;28;20040;-55
2021/05/18 17:41:04;;;;;;;2.05;0.60;;;;;;;;;;5059609;28;20033;-55
2021/05/18 17:43:32;;;;;;;1.15;0.70;;;;;;;;;;5059001;28;20025;-54
2021/05/18 17:46:00;;;;;;;1.33;0.70;;;;;;;;;;5065244;28;20067;-55
2021/05/18 17:48:26;;;;;;;1.73;0.70;;;;;;;;;;5068538;28;20033;-55
2021/05/18 17:50:53;;;;;;;1.73;0.80;;;;;;;;;;5063205;28;20116;-55
2021/05/18 17:53:20;;;;;;;1.08;0.93;;;;;;;;;;5064751;28;20059;-54
2021/05/18 17:55:46;;;;;;;0.70;0.60;;;;;;;;;;5064566;28;20036;-55
2021/05/18 17:58:14;;;;;;;2.80;0.70;;;;;;;;;;5063596;28;20052;-54
2021/05/18 18:00:41;;;;;;;0.70;0.70;;;;;;;;;;5056839;28;20071;-55
2021/05/18 18:03:07;;;;;;;1.52;0.60;;;;;;;;;;5059258;28;20040;-55
2021/05/18 18:05:34;;;;;;;0.73;0.70;;;;;;;;;;5061052;28;20041;-55
2021/05/18 18:08:02;;;;;;;2.42;0.70;;;;;;;;;;5070881;28;20052;-55
2021/05/18 18:10:30;;;;;;;1.92;0.70;;;;;;;;;;5062599;28;20098;-55
2021/05/18 18:12:57;;;;;;;1.15;0.80;;;;;;;;;;5064828;28;20056;-55
2021/05/18 18:15:24;;;;;;;0.82;0.70;;;;;;;;;;5057642;28;20045;-56
2021/05/18 18:17:51;;;;;;;4.07;0.90;;;;;;;;;;5062835;28;20048;-53
2021/05/18 18:20:18;;;;;;;1.80;0.70;;;;;;;;;;5060591;28;20079;-54
2021/05/18 18:22:45;;;;;;;2.88;0.70;;;;;;;;;;5064538;28;20581;-54
2021/05/18 18:25:12;;;;;;;2.15;0.60;;;;;;;;;;5060809;28;20041;-54
2021/05/18 18:27:39;;;;;;;1.75;0.93;;;;;;;;;;5059370;28;20036;-55
2021/05/18 18:30:07;;;;;;;1.20;1.10;;;;;;;;;;5064611;28;20055;-55
2021/05/18 18:32:34;;;;;;;5.88;0.80;;;;;;;;;;5070121;28;20045;-55
2021/05/18 18:35:01;;;;;;;1.50;0.80;;;;;;;;;;5067254;28;20040;-55
2021/05/18 18:37:33;;;;;;;0.95;0.80;;;;;;;;;;5057524;28;20032;-54
2021/05/18 18:40:00;;;;;;;0.70;0.70;;;;;;;;;;5056058;28;20064;-54
2021/05/18 18:42:27;;;;;;;0.77;0.70;;;;;;;;;;5063330;28;20135;-53
2021/05/18 18:44:54;;;;;;;0.85;0.80;;;;;;;;;;5055110;28;20067;-54
2021/05/18 18:47:20;;;;;;;1.63;0.80;;;;;;;;;;5060169;28;20112;-55
2021/05/18 18:49:50;;;;;;;4.72;0.80;;;;;;;;;;5066347;28;20051;-54
2021/05/18 18:55:06;;;;;;;2.95;0.80;;;;;;;;;;5063929;28;20119;-54
2021/05/18 18:57:32;;;;;;;2.50;0.80;;;;;;;;;;5057388;28;20048;-54
2021/05/18 18:59:59;;;;;;;3.08;0.70;;;;;;;;;;5070642;28;20070;-54
2021/05/18 19:05:27;;;;;;;6.22;1.10;;;;;;;;;;5055965;28;20037;-54
2021/05/18 19:08:21;;;;;;;1.10;0.80;;;;;;;;;;5060543;28;20037;-54
2021/05/18 19:13:38;;;;;;;1.48;0.80;;;;;;;;;;5052539;28;20056;-54
2021/05/18 19:16:05;;;;;;;1.90;0.90;;;;;;;;;;5059549;28;20501;-55
2021/05/18 19:18:32;;;;;;;1.95;0.80;;;;;;;;;;5058362;28;20052;-54
2021/05/18 19:20:59;;;;;;;0.70;0.70;;;;;;;;;;5070020;28;20102;-55
2021/05/18 19:23:25;;;;;;;1.73;0.80;;;;;;;;;;5062461;28;20049;-54
2021/05/18 19:25:54;;;;;;;3.78;0.80;;;;;;;;;;5053463;28;20045;-55
2021/05/18 19:28:21;;;;;;;1.95;0.80;;;;;;;;;;5069959;28;20282;-54
2021/05/18 19:30:48;;;;;;;1.08;1.02;;;;;;;;;;5065800;28;20048;-54
2021/05/18 19:33:16;;;;;;;0.70;0.70;;;;;;;;;;5070269;28;20045;-54
2021/05/18 19:44:50;;;;;;;2.97;0.80;;;;;;;;;;5068012;28;20040;-55
2021/05/18 19:49:38;;;;;;;1.38;0.77;;;;;;;;;;5051064;28;20044;-55
2021/05/18 19:52:05;;;;;;;1.27;0.80;;;;;;;;;;5065911;28;20040;-54
2021/05/18 19:54:36;;;;;;;3.20;1.00;;;;;;;;;;5062978;28;20423;-53
2021/05/18 19:57:17;;;;;;;1.38;0.80;;;;;;;;;;5054887;28;20045;-52
2021/05/18 20:11:15;;;;;;;0.70;0.70;;;;;;;;;;5067280;28;20052;-54
2021/05/18 20:22:14;;;;;;;1.00;0.85;;;;;;;;;;5053077;28;20045;-53
2021/05/18 20:24:42;;;;;;;3.15;0.85;;;;;;;;;;5072101;28;20036;-54
2021/05/18 20:27:09;;;;;;;2.63;1.02;;;;;;;;;;5070369;28;20624;-54
2021/05/18 20:29:36;;;;;;;1.45;0.77;;;;;;;;;;5056443;28;20071;-54